Time;durP1;ratioP1;P1;durP2;ratioP2;P2;SDS_P1;SDS_P2;PMS_P1;PMS_P2;Temp;Humidity;BMP_temperature;BMP_pressure;BME280_temperature;BME280_humidity;BME280_pressure;Samples;Min_cycle;Max_cycle;Signal;HPM_P1;HPM_P2
2022/07/03 00:01:50;;;;;;;3.92;2.88;;;;;;;24.96;84.38;99881.25;6273610;22;20095;-79
2022/07/03 00:04:18;;;;;;;4.30;3.25;;;;;;;24.88;84.89;99882.38;6286549;22;20000;-77
2022/07/03 00:06:43;;;;;;;5.88;3.13;;;;;;;24.81;85.51;99878.09;6289204;22;20023;-80
2022/07/03 00:09:09;;;;;;;3.60;3.30;;;;;;;24.84;86.46;99878.47;6278188;22;20003;-79
2022/07/03 00:11:34;;;;;;;8.05;2.90;;;;;;;24.87;86.91;99880.72;6274947;22;20157;-81
2022/07/03 00:14:00;;;;;;;5.03;2.90;;;;;;;24.86;87.38;99876.34;6273279;22;20008;-81
2022/07/03 00:16:26;;;;;;;3.97;3.13;;;;;;;24.73;85.79;99884.63;6245741;22;19999;-80
2022/07/03 00:18:52;;;;;;;5.22;2.72;;;;;;;24.70;86.98;99876.97;6273073;22;20016;-81
2022/07/03 00:21:28;;;;;;;7.50;2.95;;;;;;;24.71;87.43;99880.50;6246541;22;20003;-79
2022/07/03 00:24:13;;;;;;;3.50;3.08;;;;;;;24.70;87.20;99878.84;6246613;22;20098;-80
2022/07/03 00:26:41;;;;;;;6.00;3.90;;;;;;;24.70;88.30;99879.69;6272117;22;20015;-79
2022/07/03 00:29:09;;;;;;;4.28;3.45;;;;;;;24.71;86.72;99881.34;6272802;22;20011;-80
2022/07/03 00:31:35;;;;;;;3.65;2.88;;;;;;;24.73;87.79;99879.25;6272064;22;20050;-80
2022/07/03 00:34:02;;;;;;;8.82;4.10;;;;;;;24.57;86.94;99879.84;6272935;22;19999;-80
2022/07/03 00:37:23;;;;;;;6.18;3.22;;;;;;;24.49;87.71;99882.84;6272476;22;20014;-80
2022/07/03 00:39:49;;;;;;;4.20;3.28;;;;;;;24.35;89.76;99884.03;6269533;22;20336;-79
2022/07/03 00:42:16;;;;;;;4.15;3.65;;;;;;;24.40;90.83;99884.19;6272396;22;20018;-79
2022/07/03 00:44:58;;;;;;;6.00;3.70;;;;;;;24.44;92.42;99888.09;6271543;22;20015;-80
2022/07/03 00:47:26;;;;;;;4.35;3.15;;;;;;;24.46;91.25;99877.88;6272385;22;20011;-81
2022/07/03 00:49:54;;;;;;;4.05;3.47;;;;;;;24.46;90.24;99883.28;6272295;22;20012;-81
2022/07/03 00:52:33;;;;;;;3.42;3.15;;;;;;;24.39;88.79;99877.13;6270511;22;20082;-80
2022/07/03 00:55:01;;;;;;;6.90;3.90;;;;;;;24.22;88.75;99876.06;6272236;22;20004;-80
2022/07/03 00:57:29;;;;;;;7.20;3.70;;;;;;;24.10;90.95;99878.66;6272009;22;20019;-81
2022/07/03 00:59:55;;;;;;;3.80;3.47;;;;;;;23.93;91.81;99872.19;6270358;22;20004;-80
2022/07/03 01:02:29;;;;;;;7.10;3.20;;;;;;;23.75;92.58;99881.06;6272253;22;20058;-78
2022/07/03 01:05:07;;;;;;;3.60;3.28;;;;;;;23.67;94.00;99878.66;6271253;22;20014;-78
2022/07/03 01:07:51;;;;;;;4.65;3.15;;;;;;;23.64;92.93;99881.75;6270378;22;20008;-79
2022/07/03 01:10:34;;;;;;;6.18;3.67;;;;;;;23.58;92.75;99869.19;6271642;22;20011;-79
2022/07/03 01:13:39;;;;;;;3.13;2.92;;;;;;;23.58;92.79;99878.09;6271716;22;20284;-79
2022/07/03 01:16:22;;;;;;;4.28;3.40;;;;;;;23.62;93.06;99881.19;6270889;22;20038;-79
2022/07/03 01:18:58;;;;;;;4.13;3.22;;;;;;;23.66;93.51;99871.59;6272068;22;20516;-79
2022/07/03 01:21:43;;;;;;;5.72;4.43;;;;;;;23.75;94.11;99875.66;6270338;22;20011;-79
2022/07/03 01:24:32;;;;;;;3.85;3.55;;;;;;;23.74;93.88;99876.69;6272084;22;20086;-80
2022/07/03 01:27:05;;;;;;;4.25;3.28;;;;;;;23.58;93.57;99885.34;6274066;22;20004;-79
2022/07/03 01:29:45;;;;;;;3.40;3.15;;;;;;;23.45;94.33;99880.00;6273615;22;20012;-79
2022/07/03 01:32:14;;;;;;;4.18;3.35;;;;;;;23.15;95.78;99886.00;6274244;22;20016;-79
2022/07/03 01:34:43;;;;;;;6.15;3.60;;;;;;;22.91;97.80;99878.72;6274141;22;20011;-78
2022/07/03 01:37:13;;;;;;;5.13;3.38;;;;;;;22.78;99.55;99876.06;6274090;22;20062;-79
2022/07/03 01:39:44;;;;;;;3.95;3.60;;;;;;;22.67;100.00;99876.72;6273358;22;20018;-78
2022/07/03 01:42:11;;;;;;;4.80;3.95;;;;;;;22.49;100.00;99865.81;6274099;22;20054;-78
2022/07/03 01:44:39;;;;;;;5.40;3.65;;;;;;;22.38;100.00;99870.78;6273293;22;20061;-78
2022/07/03 01:47:05;;;;;;;6.50;3.50;;;;;;;22.37;100.00;99871.03;6273893;22;20010;-78
2022/07/03 01:49:32;;;;;;;6.72;4.40;;;;;;;22.41;100.00;99873.06;6273873;22;20090;-77
2022/07/03 01:52:00;;;;;;;5.47;4.25;;;;;;;22.49;100.00;99865.81;6273924;22;20007;-79
2022/07/03 01:54:26;;;;;;;5.22;3.40;;;;;;;22.61;100.00;99866.81;6274061;22;20340;-79
2022/07/03 01:56:54;;;;;;;5.20;3.50;;;;;;;22.73;100.00;99870.50;6273835;22;20617;-79
2022/07/03 01:59:19;;;;;;;5.47;4.45;;;;;;;22.84;100.00;99867.16;6274517;22;20138;-79
2022/07/03 02:02:06;;;;;;;3.47;3.17;;;;;;;22.97;100.00;99864.41;6273755;22;20055;-80
2022/07/03 02:04:44;;;;;;;3.97;3.58;;;;;;;23.04;100.00;99857.09;6275580;22;20428;-78
2022/07/03 02:07:25;;;;;;;4.93;3.47;;;;;;;23.02;100.00;99864.56;6250179;22;20327;-77
2022/07/03 02:10:01;;;;;;;4.93;3.55;;;;;;;23.03;100.00;99855.44;6249517;22;20390;-78
2022/07/03 02:12:36;;;;;;;6.47;3.97;;;;;;;22.92;100.00;99858.81;6274358;22;20008;-80
2022/07/03 02:15:07;;;;;;;6.57;4.10;;;;;;;22.82;100.00;99858.44;6273523;22;20431;-79
2022/07/03 02:17:46;;;;;;;5.20;3.80;;;;;;;22.76;100.00;99853.94;6273515;22;20018;-80
2022/07/03 02:20:14;;;;;;;4.20;3.63;;;;;;;22.74;100.00;99861.38;6273679;22;20094;-80
2022/07/03 02:22:42;;;;;;;4.35;3.85;;;;;;;22.78;100.00;99857.25;6273698;22;19999;-79
2022/07/03 02:25:20;;;;;;;4.32;3.90;;;;;;;22.83;100.00;99852.03;6275599;22;20008;-79
2022/07/03 02:28:05;;;;;;;3.92;3.53;;;;;;;22.93;100.00;99859.63;6273530;22;20007;-81
2022/07/03 02:30:35;;;;;;;4.53;3.70;;;;;;;22.98;100.00;99866.00;6274048;22;20015;-80
2022/07/03 02:33:02;;;;;;;4.13;3.72;;;;;;;22.82;100.00;99869.22;6273874;22;20016;-80
2022/07/03 02:35:29;;;;;;;4.70;3.90;;;;;;;22.69;100.00;99863.84;6276067;22;20034;-81
2022/07/03 02:38:16;;;;;;;6.00;3.90;;;;;;;22.37;100.00;99865.66;6274550;22;20012;-81
2022/07/03 02:40:59;;;;;;;6.38;3.83;;;;;;;22.24;100.00;99865.66;6273063;22;20063;-80
2022/07/03 02:43:49;;;;;;;5.53;4.55;;;;;;;22.19;100.00;99858.25;6274038;22;20012;-80
2022/07/03 02:49:52;;;;;;;5.13;4.07;;;;;;;22.12;100.00;99862.81;6273639;22;20016;-81
2022/07/03 02:52:36;;;;;;;4.47;4.03;;;;;;;22.20;100.00;99870.66;6264898;22;20062;-80
2022/07/03 02:55:22;;;;;;;6.00;4.30;;;;;;;22.30;100.00;99864.81;6273402;22;20067;-81
2022/07/03 02:57:57;;;;;;;4.22;3.90;;;;;;;22.33;100.00;99865.22;6273206;22;20007;-81
2022/07/03 03:00:24;;;;;;;5.70;4.05;;;;;;;22.39;100.00;99875.13;6271818;22;20027;-81
2022/07/03 03:02:49;;;;;;;4.57;3.97;;;;;;;22.37;100.00;99858.41;6272920;22;20018;-80
2022/07/03 03:05:20;;;;;;;5.15;4.30;;;;;;;22.38;100.00;99868.09;6272036;22;20078;-79
2022/07/03 03:08:08;;;;;;;4.57;3.92;;;;;;;22.38;100.00;99857.34;6246628;22;20063;-79
2022/07/03 03:10:37;;;;;;;4.00;3.70;;;;;;;22.37;100.00;99866.47;6273555;22;20019;-80
2022/07/03 03:13:09;;;;;;;4.25;3.92;;;;;;;22.35;100.00;99873.09;6273306;22;20038;-79
2022/07/03 03:15:37;;;;;;;4.80;4.28;;;;;;;22.33;100.00;99881.34;6246294;22;20373;-79
2022/07/03 03:18:37;;;;;;;4.35;3.97;;;;;;;22.37;100.00;99876.41;6274568;22;20038;-79
2022/07/03 03:21:03;;;;;;;;;;;;;;;22.36;100.00;99878.25;6280651;22;20019;-80
2022/07/03 03:23:49;;;;;;;4.43;4.13;;;;;;;22.34;100.00;99877.63;6282915;22;20239;-81
2022/07/03 03:26:28;;;;;;;4.85;4.00;;;;;;;22.29;100.00;99869.38;6274414;22;20012;-80
2022/07/03 03:29:18;;;;;;;4.60;4.20;;;;;;;22.21;100.00;99877.66;6250538;22;20015;-79
2022/07/03 03:31:43;;;;;;;;;;;;;;;22.03;100.00;99880.19;6284149;22;20007;-79
2022/07/03 03:34:10;;;;;;;4.72;4.30;;;;;;;22.01;100.00;99882.25;6285060;22;19965;-79
2022/07/03 03:36:35;;;;;;;4.30;3.90;;;;;;;22.04;100.00;99877.28;6287096;22;20060;-79
2022/07/03 03:39:01;;;;;;;4.20;3.90;;;;;;;22.04;100.00;99876.44;6289823;22;20008;-81
2022/07/03 03:41:27;;;;;;;4.80;4.40;;;;;;;22.04;100.00;99882.66;6285549;22;20016;-80
2022/07/03 03:43:52;;;;;;;6.60;4.30;;;;;;;21.99;100.00;99885.16;6286160;22;20114;-79
2022/07/03 03:46:18;;;;;;;5.03;4.53;;;;;;;21.97;100.00;99875.66;6279188;22;20081;-80
2022/07/03 03:48:43;;;;;;;5.82;4.25;;;;;;;21.96;100.00;99880.19;6275113;22;20455;-79
2022/07/03 03:51:09;;;;;;;4.82;4.32;;;;;;;21.94;100.00;99884.09;6280426;22;20015;-79
2022/07/03 03:53:34;;;;;;;4.93;3.92;;;;;;;21.97;100.00;99889.09;6281928;22;20102;-76
2022/07/03 03:56:02;;;;;;;4.78;4.28;;;;;;;22.03;100.00;99890.94;6286281;22;20023;-80
2022/07/03 03:58:29;;;;;;;7.43;5.93;;;;;;;22.07;100.00;99881.41;6291793;22;20007;-80
2022/07/03 04:00:56;;;;;;;7.82;6.15;;;;;;;21.84;100.00;99881.84;6290763;22;20056;-80
2022/07/03 04:03:21;;;;;;;7.20;5.32;;;;;;;21.82;100.00;99888.44;6291731;22;20011;-79
2022/07/03 04:05:47;;;;;;;6.70;6.00;;;;;;;21.80;100.00;99890.50;6289552;22;20534;-79
2022/07/03 04:08:13;;;;;;;7.82;6.28;;;;;;;21.80;100.00;99885.13;6287120;22;20011;-79
2022/07/03 04:10:38;;;;;;;6.07;5.30;;;;;;;21.82;100.00;99893.81;6254629;22;20007;-79
2022/07/03 04:13:04;;;;;;;6.70;6.10;;;;;;;21.74;100.00;99891.31;6278157;22;20010;-79
2022/07/03 04:15:30;;;;;;;6.32;5.82;;;;;;;21.68;100.00;99894.84;6276975;22;20004;-78
2022/07/03 04:17:55;;;;;;;5.85;5.25;;;;;;;21.69;100.00;99888.44;6276671;22;20008;-80
2022/07/03 04:20:20;;;;;;;5.78;5.28;;;;;;;21.74;100.00;99894.00;6273760;22;20434;-80
2022/07/03 04:22:48;;;;;;;5.90;5.18;;;;;;;21.80;100.00;99890.50;6275986;22;20384;-81
2022/07/03 04:25:13;;;;;;;6.57;5.30;;;;;;;21.88;100.00;99890.28;6278367;22;20000;-80
2022/07/03 04:27:39;;;;;;;6.88;6.28;;;;;;;21.86;100.00;99892.34;6278124;22;20446;-79
2022/07/03 04:30:09;;;;;;;6.30;5.78;;;;;;;21.78;100.00;99892.56;6286322;22;20014;-79
2022/07/03 04:32:35;;;;;;;;;;;;;;;21.80;100.00;99890.50;6263590;22;20016;-79
2022/07/03 04:35:00;;;;;;;5.30;4.82;;;;;;;21.86;100.00;99897.72;6289203;22;19961;-79
2022/07/03 04:37:26;;;;;;;5.63;5.15;;;;;;;21.89;100.00;99894.63;6284074;22;20007;-80
2022/07/03 04:39:51;;;;;;;7.82;4.63;;;;;;;21.92;100.00;99892.34;6282952;22;20016;-79
2022/07/03 04:42:17;;;;;;;6.05;5.43;;;;;;;21.90;100.00;99890.91;6283487;22;20014;-80
2022/07/03 04:44:42;;;;;;;6.35;5.75;;;;;;;21.86;100.00;99890.50;6254766;22;20052;-79
2022/07/03 04:47:07;;;;;;;6.22;5.55;;;;;;;21.81;100.00;99886.78;6282871;22;20015;-80
2022/07/03 04:49:33;;;;;;;6.32;5.90;;;;;;;21.76;100.00;99883.88;6282689;22;20008;-80
2022/07/03 04:51:58;;;;;;;7.13;5.60;;;;;;;21.79;100.00;99892.38;6281134;22;20091;-79
2022/07/03 04:54:24;;;;;;;7.35;6.75;;;;;;;21.76;100.00;99895.47;6281337;22;20015;-80
2022/07/03 04:56:49;;;;;;;9.23;6.40;;;;;;;21.83;100.00;99892.78;6282462;22;20007;-80
2022/07/03 04:59:14;;;;;;;6.65;6.03;;;;;;;21.93;100.00;99885.13;6256168;22;20348;-80
2022/07/03 05:01:40;;;;;;;8.27;7.43;;;;;;;22.05;100.00;99894.22;6283068;22;20012;-80
2022/07/03 05:04:05;;;;;;;7.18;6.57;;;;;;;22.11;100.00;99898.78;6282709;22;20015;-80
2022/07/03 05:06:31;;;;;;;9.35;7.00;;;;;;;22.16;100.00;99906.19;6282614;22;20037;-79
2022/07/03 05:08:56;;;;;;;10.18;7.38;;;;;;;22.22;100.00;99900.81;6283212;22;20016;-79
2022/07/03 05:11:22;;;;;;;7.85;7.15;;;;;;;22.29;100.00;99907.00;6283153;22;20099;-80
2022/07/03 05:13:47;;;;;;;8.68;7.78;;;;;;;22.28;100.00;99908.03;6281537;22;20014;-80
2022/07/03 05:16:13;;;;;;;6.93;6.38;;;;;;;22.34;100.00;99909.06;6282301;22;20018;-80
2022/07/03 05:18:38;;;;;;;8.10;7.30;;;;;;;22.36;100.00;99901.63;6282860;22;20018;-80
2022/07/03 05:21:04;;;;;;;7.18;6.60;;;;;;;22.42;100.00;99901.63;6281578;22;20023;-80
2022/07/03 05:23:29;;;;;;;7.38;6.72;;;;;;;22.47;100.00;99906.34;6281234;22;20011;-79
2022/07/03 05:25:55;;;;;;;7.47;6.88;;;;;;;22.50;100.00;99907.81;6280501;22;20058;-80
2022/07/03 05:28:20;;;;;;;7.82;7.13;;;;;;;22.48;100.00;99899.13;6280555;22;20014;-80
2022/07/03 05:30:46;;;;;;;10.65;7.03;;;;;;;22.50;100.00;99908.63;6281720;22;20161;-80
2022/07/03 05:33:13;;;;;;;8.07;6.85;;;;;;;22.55;100.00;99910.69;6279235;22;20023;-80
2022/07/03 05:35:38;;;;;;;7.93;6.72;;;;;;;22.61;100.00;99912.53;6280658;22;20074;-80
2022/07/03 05:38:04;;;;;;;8.55;7.50;;;;;;;22.68;100.00;99916.03;6253870;22;20070;-80
2022/07/03 05:40:29;;;;;;;8.57;7.78;;;;;;;22.78;100.00;99916.44;6246961;23;20018;-81
2022/07/03 05:42:55;;;;;;;9.32;8.43;;;;;;;22.83;100.00;99908.53;6249775;23;20023;-80
2022/07/03 05:45:20;;;;;;;9.20;8.43;;;;;;;22.78;100.00;99905.66;6250869;23;20015;-80
2022/07/03 05:47:47;;;;;;;9.77;8.85;;;;;;;22.73;100.00;99902.78;6251597;23;20015;-81
2022/07/03 05:50:12;;;;;;;9.02;8.23;;;;;;;22.82;100.00;99899.63;6250830;23;20020;-80
2022/07/03 05:52:38;;;;;;;12.93;9.25;;;;;;;22.90;100.00;99909.34;6248698;23;20034;-80
2022/07/03 05:55:05;;;;;;;11.32;10.23;;;;;;;22.90;100.00;99906.66;6249388;23;20004;-79
2022/07/03 05:57:30;;;;;;;9.82;9.02;;;;;;;23.00;100.00;99903.50;6250261;23;20039;-80
2022/07/03 05:59:56;;;;;;;10.93;9.82;;;;;;;23.13;100.00;99909.63;6250690;23;20036;-80
2022/07/03 06:02:21;;;;;;;11.65;10.45;;;;;;;23.25;100.00;99918.69;6253708;23;20011;-80
2022/07/03 06:04:46;;;;;;;10.55;9.50;;;;;;;23.37;100.00;99909.91;6251077;23;20027;-81
2022/07/03 06:07:12;;;;;;;12.32;11.13;;;;;;;23.48;100.00;99911.94;6253849;23;20532;-80
2022/07/03 06:09:37;;;;;;;10.60;9.70;;;;;;;23.58;100.00;99914.97;6252533;23;20005;-80
2022/07/03 06:12:03;;;;;;;11.55;10.48;;;;;;;23.67;100.00;99919.06;6252787;23;20016;-80
2022/07/03 06:14:29;;;;;;;11.43;10.32;;;;;;;23.75;100.00;99917.94;6252028;23;20008;-80
2022/07/03 06:16:54;;;;;;;12.80;11.63;;;;;;;23.80;100.00;99916.25;6253839;23;20013;-80
2022/07/03 06:19:20;;;;;;;11.60;10.40;;;;;;;23.82;100.00;99913.34;6248201;23;20004;-81
2022/07/03 06:21:45;;;;;;;10.70;9.63;;;;;;;23.90;100.00;99905.81;6244034;23;20507;-81
2022/07/03 06:24:11;;;;;;;10.93;9.82;;;;;;;23.96;100.00;99907.63;6244046;23;20084;-79
2022/07/03 06:26:36;;;;;;;11.13;8.65;;;;;;;24.07;100.00;99912.28;6243184;23;20011;-80
2022/07/03 06:29:02;;;;;;;10.82;9.20;;;;;;;24.17;100.00;99900.16;6242211;23;20112;-79
2022/07/03 06:31:27;;;;;;;10.00;9.10;;;;;;;24.24;100.00;99901.78;6243665;23;20016;-81
2022/07/03 06:33:53;;;;;;;11.45;10.32;;;;;;;24.28;100.00;99907.53;6216614;23;20468;-81
2022/07/03 06:36:18;;;;;;;11.40;8.95;;;;;;;24.37;100.00;99911.63;6243637;23;20011;-82
2022/07/03 06:38:43;;;;;;;13.40;9.40;;;;;;;24.42;100.00;99915.28;6243559;23;20016;-82
2022/07/03 06:41:09;;;;;;;11.77;9.30;;;;;;;24.48;100.00;99908.19;6242243;23;20008;-81
2022/07/03 06:43:36;;;;;;;11.45;9.30;;;;;;;24.58;100.00;99908.47;6242220;23;20074;-80
2022/07/03 06:46:01;;;;;;;9.15;8.45;;;;;;;24.69;100.00;99910.41;6241746;23;20024;-81
2022/07/03 06:48:27;;;;;;;9.40;8.50;;;;;;;24.82;100.00;99907.56;6241272;23;20031;-81
2022/07/03 06:50:52;;;;;;;10.30;9.45;;;;;;;24.92;100.00;99911.66;6241054;23;20020;-80
2022/07/03 06:53:18;;;;;;;11.05;10.10;;;;;;;25.00;100.00;99900.50;6243096;23;20087;-81
2022/07/03 06:55:43;;;;;;;11.15;10.15;;;;;;;25.02;100.00;99903.81;6242339;23;20019;-81
2022/07/03 06:58:08;;;;;;;9.85;8.85;;;;;;;25.10;100.00;99895.38;6242563;23;20316;-80
2022/07/03 07:00:36;;;;;;;8.90;8.20;;;;;;;25.18;100.00;99889.66;6242851;22;20737;-83
2022/07/03 07:03:01;;;;;;;10.32;9.32;;;;;;;25.24;100.00;99892.28;6241572;23;20114;-81
2022/07/03 07:05:27;;;;;;;9.98;9.02;;;;;;;25.28;100.00;99887.22;6242173;23;20008;-81
2022/07/03 07:07:52;;;;;;;8.57;7.88;;;;;;;25.37;100.00;99880.47;6243198;23;20357;-81
2022/07/03 07:10:18;;;;;;;9.43;8.48;;;;;;;25.45;100.00;99888.22;6242826;23;20005;-80
2022/07/03 07:12:43;;;;;;;7.60;7.00;;;;;;;25.54;99.41;99884.16;6242450;23;20016;-81
2022/07/03 07:15:09;;;;;;;7.60;6.88;;;;;;;25.64;98.63;99881.72;6243396;23;20001;-81
2022/07/03 07:17:34;;;;;;;7.65;7.03;;;;;;;25.71;96.08;99878.09;6242847;23;20011;-80
2022/07/03 07:20:00;;;;;;;7.88;6.65;;;;;;;25.80;95.66;99882.09;6243080;23;20008;-80
2022/07/03 07:22:25;;;;;;;7.32;6.63;;;;;;;25.88;92.93;99881.75;6241900;23;20036;-80
2022/07/03 07:24:52;;;;;;;7.05;6.55;;;;;;;25.94;93.67;99878.94;6243040;23;20015;-81
2022/07/03 07:27:17;;;;;;;6.97;6.07;;;;;;;26.01;93.60;99882.34;6243112;23;20090;-81
2022/07/03 07:29:43;;;;;;;7.35;5.90;;;;;;;26.03;90.14;99885.66;6245269;23;20050;-81
2022/07/03 07:32:08;;;;;;;7.55;5.80;;;;;;;26.07;91.32;99892.22;6246288;23;20036;-81
2022/07/03 07:34:33;;;;;;;6.90;6.30;;;;;;;26.06;89.36;99887.03;6251507;23;20008;-81
2022/07/03 07:37:00;;;;;;;5.57;5.10;;;;;;;26.14;89.51;99893.97;6248862;23;20089;-80
2022/07/03 07:39:26;;;;;;;6.15;5.55;;;;;;;26.21;89.88;99887.41;6260935;23;20004;-80
2022/07/03 07:41:51;;;;;;;6.47;5.53;;;;;;;26.28;89.39;99893.53;6257773;23;20016;-80
2022/07/03 07:44:17;;;;;;;6.22;5.40;;;;;;;26.36;88.84;99895.88;6253395;23;20013;-81
2022/07/03 07:46:42;;;;;;;5.68;5.03;;;;;;;26.43;87.55;99896.56;6249080;23;20038;-80
2022/07/03 07:49:08;;;;;;;8.48;5.75;;;;;;;26.51;86.96;99905.41;6249233;23;20008;-81
2022/07/03 07:51:33;;;;;;;7.32;5.65;;;;;;;26.57;86.74;99896.31;6246743;23;20015;-81
2022/07/03 07:53:59;;;;;;;8.27;5.80;;;;;;;26.61;86.11;99886.66;6250848;23;20487;-80
2022/07/03 07:56:26;;;;;;;6.20;5.70;;;;;;;26.65;85.46;99887.81;6246626;22;20043;-81
2022/07/03 07:58:51;;;;;;;8.15;6.15;;;;;;;26.71;85.98;99892.28;6243246;23;20016;-81
2022/07/03 08:06:46;;;;;;;6.95;6.00;;;;;;;26.87;83.32;99876.09;6258834;23;20083;-81
2022/07/03 08:09:12;;;;;;;7.32;5.10;;;;;;;26.93;83.46;99879.75;6259273;23;20023;-82
2022/07/03 08:11:37;;;;;;;6.03;5.30;;;;;;;26.99;83.55;99867.94;6251404;23;20009;-81
2022/07/03 08:14:04;;;;;;;6.07;5.47;;;;;;;27.04;83.90;99873.47;6250941;23;20053;-81
2022/07/03 08:16:31;;;;;;;5.75;5.25;;;;;;;27.10;83.12;99868.97;6246456;23;20078;-81
2022/07/03 08:18:56;;;;;;;6.30;5.28;;;;;;;27.13;82.99;99865.78;6243265;23;20015;-80
2022/07/03 08:21:22;;;;;;;5.50;5.10;;;;;;;27.20;83.34;99864.56;6245082;23;20000;-81
2022/07/03 08:23:47;;;;;;;6.15;5.40;;;;;;;27.27;82.92;99865.22;6245207;22;20011;-82
2022/07/03 08:26:13;;;;;;;5.70;5.30;;;;;;;27.33;80.24;99873.47;6249988;22;20067;-79
2022/07/03 08:28:38;;;;;;;5.63;5.20;;;;;;;27.41;79.37;99875.75;6277611;22;20324;-82
2022/07/03 08:31:04;;;;;;;8.65;5.50;;;;;;;27.46;80.37;99875.84;6276019;22;20007;-80
2022/07/03 08:33:29;;;;;;;7.25;5.60;;;;;;;27.51;79.53;99870.56;6275841;22;20030;-81
2022/07/03 08:35:55;;;;;;;6.28;5.35;;;;;;;27.57;77.59;99874.97;6272322;22;20008;-80
2022/07/03 08:38:29;;;;;;;5.60;5.20;;;;;;;27.61;78.51;99876.16;6245747;22;20008;-80
2022/07/03 08:40:57;;;;;;;4.70;4.30;;;;;;;27.68;79.15;99871.38;6272231;22;20080;-80
2022/07/03 08:43:24;;;;;;;5.13;4.50;;;;;;;27.75;78.52;99871.19;6273575;22;20012;-80
2022/07/03 08:45:49;;;;;;;6.65;4.93;;;;;;;27.83;77.25;99874.31;6273553;22;20000;-80
2022/07/03 08:48:18;;;;;;;5.70;5.00;;;;;;;27.91;77.92;99863.06;6273909;22;20486;-80
2022/07/03 08:50:45;;;;;;;4.85;4.40;;;;;;;27.97;77.33;99859.38;6273236;22;20008;-78
2022/07/03 08:53:11;;;;;;;5.53;4.90;;;;;;;28.06;76.41;99862.47;6246321;22;20016;-80
2022/07/03 08:55:37;;;;;;;5.40;4.90;;;;;;;28.13;76.91;99857.72;6271644;22;20339;-77
2022/07/03 08:58:05;;;;;;;6.05;4.88;;;;;;;28.20;74.22;99857.53;6272491;22;20050;-79
2022/07/03 09:00:31;;;;;;;5.90;4.78;;;;;;;28.26;75.13;99856.53;6272295;22;20015;-81
2022/07/03 09:02:59;;;;;;;6.82;4.65;;;;;;;28.31;73.28;99854.72;6272326;22;20018;-80
2022/07/03 09:05:25;;;;;;;4.88;4.47;;;;;;;28.34;71.87;99858.81;6272669;22;20455;-79
2022/07/03 09:07:52;;;;;;;5.05;4.70;;;;;;;28.42;72.14;99855.66;6272914;22;20011;-80
2022/07/03 09:10:19;;;;;;;6.60;5.50;;;;;;;28.54;69.87;99853.66;6272898;22;20027;-80
2022/07/03 09:12:48;;;;;;;5.68;4.20;;;;;;;28.57;69.63;99852.34;6272175;22;20007;-80
2022/07/03 09:15:14;;;;;;;4.85;3.50;;;;;;;28.60;69.50;99852.63;6273292;22;20034;-80
2022/07/03 09:17:39;;;;;;;4.65;4.00;;;;;;;28.67;68.95;99844.31;6272010;22;20090;-80
2022/07/03 09:20:07;;;;;;;5.43;4.40;;;;;;;28.73;66.01;99849.56;6245163;22;20015;-80
2022/07/03 09:22:37;;;;;;;4.30;3.90;;;;;;;28.78;67.19;99848.81;6272013;22;20399;-80
2022/07/03 09:25:13;;;;;;;3.63;3.33;;;;;;;28.83;67.36;99857.81;6273623;22;20008;-78
2022/07/03 09:27:52;;;;;;;3.70;3.40;;;;;;;28.87;66.08;99852.69;6274154;22;20007;-80
2022/07/03 09:30:18;;;;;;;4.43;3.60;;;;;;;28.91;67.12;99837.53;6275863;22;20509;-80
2022/07/03 09:32:45;;;;;;;4.10;3.70;;;;;;;28.96;66.20;99839.50;6274693;22;20069;-80
2022/07/03 09:35:19;;;;;;;5.93;3.67;;;;;;;28.99;64.75;99847.13;6275081;22;20020;-80
2022/07/03 09:38:02;;;;;;;3.83;3.45;;;;;;;29.06;65.60;99845.03;6272470;22;20019;-80
2022/07/03 09:40:47;;;;;;;4.05;3.60;;;;;;;29.02;62.57;99833.03;6271763;22;20011;-80
2022/07/03 09:43:13;;;;;;;3.92;2.90;;;;;;;29.01;59.70;99836.81;6274504;22;20016;-81
2022/07/03 09:46:00;;;;;;;5.22;3.28;;;;;;;29.07;58.35;99835.78;6271709;22;20007;-81
2022/07/03 09:48:34;;;;;;;4.68;3.38;;;;;;;29.15;57.97;99835.34;6274061;22;20007;-81
2022/07/03 09:51:23;;;;;;;4.43;3.28;;;;;;;29.26;57.61;99828.94;6274193;22;20000;-80
2022/07/03 09:53:53;;;;;;;3.38;2.80;;;;;;;29.33;57.15;99818.69;6273512;22;20517;-80
2022/07/03 09:56:19;;;;;;;;;;;;;;;29.41;54.76;99826.34;6274014;22;20012;-80
2022/07/03 09:59:03;;;;;;;2.55;2.40;;;;;;;29.45;52.79;99822.06;6246595;22;20308;-80
2022/07/03 10:01:29;;;;;;;2.55;2.35;;;;;;;29.56;48.83;99823.78;6273957;22;20318;-80
2022/07/03 10:04:09;;;;;;;4.00;2.88;;;;;;;29.63;50.01;99827.06;6273878;22;20016;-81
2022/07/03 10:06:58;;;;;;;3.65;2.75;;;;;;;29.67;51.26;99824.66;6273754;22;20428;-80
2022/07/03 10:09:28;;;;;;;4.13;3.13;;;;;;;29.67;52.27;99809.16;6262089;22;20467;-81
2022/07/03 10:11:55;;;;;;;4.22;2.72;;;;;;;29.74;52.09;99819.00;6273748;22;20019;-81
2022/07/03 10:14:23;;;;;;;4.28;2.60;;;;;;;29.81;49.70;99816.88;6221351;22;20313;-81
2022/07/03 10:16:49;;;;;;;7.18;2.67;;;;;;;29.84;50.00;99808.19;6273574;22;20016;-81
2022/07/03 10:19:18;;;;;;;2.58;2.38;;;;;;;29.91;50.20;99814.25;6273979;22;20011;-81
2022/07/03 10:21:50;;;;;;;3.33;2.60;;;;;;;29.96;48.26;99811.56;6273742;22;20086;-82
2022/07/03 10:24:17;;;;;;;2.72;2.47;;;;;;;29.98;47.43;99820.28;6273534;22;20090;-81
2022/07/03 10:26:44;;;;;;;2.25;2.15;;;;;;;30.01;47.97;99806.97;6273237;22;20014;-82
2022/07/03 10:29:10;;;;;;;4.82;2.85;;;;;;;30.09;46.76;99808.38;6273815;22;20433;-81
2022/07/03 10:31:38;;;;;;;3.88;2.50;;;;;;;30.21;45.74;99806.25;6273197;22;20004;-80
2022/07/03 10:34:05;;;;;;;2.42;2.22;;;;;;;30.25;46.76;99804.63;6273692;22;20011;-81
2022/07/03 10:36:30;;;;;;;2.70;2.30;;;;;;;30.32;47.28;99797.03;6273473;22;20336;-80
2022/07/03 10:39:02;;;;;;;2.78;2.10;;;;;;;30.40;42.41;99804.69;6246762;22;20014;-81
2022/07/03 10:47:42;;;;;;;4.63;2.70;;;;;;;30.65;44.70;99789.53;6273798;22;20749;-80
2022/07/03 10:50:12;;;;;;;;;;;;;;;30.65;43.93;99786.81;6275521;22;20014;-81
2022/07/03 10:52:39;;;;;;;2.88;2.20;;;;;;;30.69;43.17;99782.50;6274288;22;20003;-82
2022/07/03 10:55:06;;;;;;;2.20;2.05;;;;;;;30.73;42.76;99783.59;6246922;22;20019;-81
2022/07/03 10:57:33;;;;;;;4.78;2.50;;;;;;;30.84;43.80;99779.78;6273055;22;20008;-81
2022/07/03 11:00:02;;;;;;;3.58;2.53;;;;;;;30.88;45.99;99776.25;6273685;22;20003;-81
2022/07/03 11:02:38;;;;;;;5.38;2.70;;;;;;;30.98;46.32;99772.75;6273389;22;20007;-82
2022/07/03 11:05:13;;;;;;;3.13;2.83;;;;;;;31.04;46.27;99779.03;6273874;22;20012;-80
2022/07/03 11:07:47;;;;;;;3.30;2.63;;;;;;;31.03;47.31;99775.47;6245318;22;20019;-81
2022/07/03 11:10:16;;;;;;;3.53;2.83;;;;;;;31.06;47.49;99777.66;6248144;22;20015;-81
2022/07/03 11:13:01;;;;;;;2.60;2.40;;;;;;;31.22;43.69;99771.13;6272173;22;20045;-81
2022/07/03 11:15:27;;;;;;;3.90;2.55;;;;;;;31.24;43.99;99771.69;6273345;22;20495;-80
2022/07/03 11:18:16;;;;;;;2.95;2.40;;;;;;;31.28;44.31;99771.94;6273003;22;20416;-81
2022/07/03 11:20:42;;;;;;;2.38;2.17;;;;;;;31.34;40.82;99779.03;6273746;22;20011;-81
2022/07/03 11:23:10;;;;;;;2.40;2.20;;;;;;;31.42;40.22;99764.03;6278510;22;20011;-81
2022/07/03 11:25:52;;;;;;;3.78;2.40;;;;;;;31.52;40.35;99766.75;6288441;22;20007;-80
2022/07/03 11:28:33;;;;;;;2.70;2.45;;;;;;;31.67;40.58;99753.13;6280626;22;20010;-82
2022/07/03 11:31:13;;;;;;;3.97;2.38;;;;;;;31.79;39.66;99753.63;6273920;22;20323;-81
2022/07/03 11:33:43;;;;;;;2.65;1.92;;;;;;;31.76;40.63;99747.91;6272977;22;20022;-80
2022/07/03 11:36:27;;;;;;;3.97;2.00;;;;;;;31.81;39.88;99750.66;6273599;22;20004;-81
2022/07/03 11:38:55;;;;;;;3.53;2.15;;;;;;;31.86;38.28;99748.72;6273302;22;20035;-80
2022/07/03 11:41:22;;;;;;;3.72;2.47;;;;;;;31.95;39.16;99752.50;6241620;22;20012;-75
2022/07/03 11:43:51;;;;;;;3.50;2.22;;;;;;;31.97;38.64;99750.31;6214386;23;20024;-77
2022/07/03 11:46:28;;;;;;;2.65;1.95;;;;;;;31.93;38.35;99746.47;6215926;23;20009;-77
2022/07/03 11:49:18;;;;;;;4.18;2.40;;;;;;;31.98;39.53;99740.22;6244933;23;20046;-77
2022/07/03 11:52:01;;;;;;;2.28;2.13;;;;;;;32.08;40.93;99741.00;6244362;23;20008;-76
2022/07/03 11:54:50;;;;;;;3.10;2.70;;;;;;;32.21;42.51;99741.50;6242565;23;20013;-77
2022/07/03 11:57:15;;;;;;;2.50;2.28;;;;;;;32.38;40.80;99733.78;6242664;23;20024;-75